Weather at Zephyrhills Municipal Airport

Public forecast

Using degrees Fahrenheit for public forecast. Weather courtesy of forecast.io.

Current aviation weather report (METAR) for Zephyrhills Municipal Airport

Retrieved 2022/08/13 17:55 UTC (25 minutes ago):

KZPH 131755Z AUTO 28008KT 10SM SCT048 33/21 A3004 RMK A02 T03340210 10339 20240

Closest aviation forecast (TAF) to Zephyrhills Municipal Airport

Closest forecast is Lakeland Linder International Airport, 16.1 nm (29.8 km) SSE. Retrieved 2022/08/13 18:36 UTC (0 seconds ago):

TAF KLAL 131735Z 1318/1418 30007KT P6SM VCTS SCT040CB SCT100 BKN250 FM140100 VRB03KT P6SM FEW050 SCT250 FM141500 31005KT P6SM VCTS SCT030CB BKN100 BKN250